Time;durP1;ratioP1;P1;durP2;ratioP2;P2;SDS_P1;SDS_P2;PMS_P1;PMS_P2;Temp;Humidity;BMP_temperature;BMP_pressure;BME280_temperature;BME280_humidity;BME280_pressure;Samples;Min_cycle;Max_cycle;Signal;HPM_P1;HPM_P2
2022/01/27 00:01:07;;;;;;;36.50;20.25;;;5.90;99.90;;;;;;4982913;28;20069;-69
2022/01/27 00:03:43;;;;;;;39.05;19.77;;;6.00;99.90;;;;;;4977360;28;20050;-69
2022/01/27 00:06:10;;;;;;;34.42;20.00;;;6.00;99.90;;;;;;4989206;28;20471;-69
2022/01/27 00:08:45;;;;;;;40.38;20.90;;;6.00;99.90;;;;;;4986786;28;20064;-69
2022/01/27 00:11:13;;;;;;;37.85;20.27;;;6.00;99.90;;;;;;4984134;28;20051;-70
2022/01/27 00:13:53;;;;;;;36.92;20.73;;;6.00;99.90;;;;;;4995376;28;20439;-70
2022/01/27 00:16:23;;;;;;;35.58;20.25;;;6.00;99.90;;;;;;4995361;28;20049;-69
2022/01/27 00:18:50;;;;;;;33.35;19.35;;;6.00;99.90;;;;;;4972644;28;20042;-69
2022/01/27 00:21:19;;;;;;;37.05;19.52;;;6.00;99.90;;;;;;4995131;28;20474;-70
2022/01/27 00:23:45;;;;;;;39.33;20.73;;;6.00;99.90;;;;;;4983489;28;20047;-69
2022/01/27 00:26:12;;;;;;;38.72;20.52;;;6.00;99.90;;;;;;4959005;28;20467;-70
2022/01/27 00:28:42;;;;;;;40.15;20.15;;;6.00;99.90;;;;;;4961521;28;20050;-71
2022/01/27 00:31:08;;;;;;;38.90;20.45;;;6.00;99.90;;;;;;4970987;28;20529;-70
2022/01/27 00:33:35;;;;;;;40.53;20.80;;;6.00;99.90;;;;;;4975154;28;20515;-70
2022/01/27 00:36:01;;;;;;;40.33;20.38;;;6.00;99.90;;;;;;4991810;28;20046;-70
2022/01/27 00:38:26;;;;;;;39.78;21.05;;;6.00;99.90;;;;;;4982473;28;20062;-69
2022/01/27 00:40:52;;;;;;;40.20;20.90;;;6.00;99.90;;;;;;4975437;28;20459;-71
2022/01/27 00:43:18;;;;;;;41.85;22.05;;;6.00;99.90;;;;;;4959554;28;20050;-69
2022/01/27 00:45:44;;;;;;;37.30;20.00;;;6.00;99.90;;;;;;4995354;28;20053;-69
2022/01/27 00:48:10;;;;;;;35.78;20.40;;;6.00;99.90;;;;;;4982593;28;20463;-70
2022/01/27 00:50:38;;;;;;;46.80;21.30;;;6.00;99.90;;;;;;4981630;28;20336;-69
2022/01/27 00:53:16;;;;;;;41.28;21.90;;;5.90;99.90;;;;;;4998853;28;20046;-71
2022/01/27 00:55:42;;;;;;;43.05;21.08;;;6.00;99.90;;;;;;4998753;28;20185;-69
2022/01/27 01:01:00;;;;;;;44.22;20.88;;;5.90;99.90;;;;;;4967365;28;20080;-69
2022/01/27 01:03:31;;;;;;;46.92;21.73;;;5.90;99.90;;;;;;4981568;28;20058;-70
2022/01/27 01:19:10;;;;;;;41.85;22.67;;;5.90;99.90;;;;;;4983735;28;20081;-69
2022/01/27 01:30:05;;;;;;;45.75;22.13;;;5.80;99.90;;;;;;4973206;28;20415;-68
2022/01/27 01:35:00;;;;;;;45.42;22.63;;;5.70;99.90;;;;;;4984820;28;20050;-69
2022/01/27 01:37:26;;;;;;;40.90;22.85;;;5.70;99.90;;;;;;4998170;28;20134;-70
2022/01/27 01:39:51;;;;;;;44.78;21.95;;;5.70;99.90;;;;;;4998378;28;20510;-69
2022/01/27 01:42:17;;;;;;;42.80;21.33;;;5.70;99.90;;;;;;4997693;28;20121;-70
2022/01/27 01:44:43;;;;;;;41.83;21.30;;;5.70;99.90;;;;;;4980778;28;20047;-69
2022/01/27 01:47:09;;;;;;;46.17;22.92;;;5.80;99.90;;;;;;4980714;28;20046;-68
2022/01/27 01:49:35;;;;;;;46.45;23.02;;;5.60;99.90;;;;;;4977724;28;20066;-69
2022/01/27 01:52:06;;;;;;;42.33;22.33;;;5.50;99.90;;;;;;4995105;28;20104;-70
2022/01/27 01:54:32;;;;;;;41.15;21.85;;;5.50;99.90;;;;;;4987434;28;20473;-69
2022/01/27 01:56:57;;;;;;;42.30;22.92;;;5.50;99.90;;;;;;4988257;28;20134;-69
2022/01/27 01:59:23;;;;;;;46.00;23.17;;;5.40;99.90;;;;;;4997475;28;20489;-69
2022/01/27 02:01:49;;;;;;;41.67;22.80;;;5.40;99.90;;;;;;4981799;28;20046;-70
2022/01/27 02:04:15;;;;;;;44.67;22.30;;;5.40;99.90;;;;;;4979664;28;20047;-70
2022/01/27 02:07:14;;;;;;;41.63;22.00;;;5.40;99.90;;;;;;4991241;28;20065;-69
2022/01/27 02:10:01;;;;;;;40.20;22.33;;;5.40;99.90;;;;;;4980920;28;20082;-70
2022/01/27 02:18:00;;;;;;;48.60;23.60;;;5.40;99.90;;;;;;4996262;28;20085;-70
2022/01/27 02:20:28;;;;;;;41.80;23.85;;;5.40;99.90;;;;;;4997811;28;20042;-68
2022/01/27 02:22:53;;;;;;;46.85;23.55;;;5.40;99.90;;;;;;4993381;28;20050;-68
2022/01/27 02:25:19;;;;;;;44.00;24.13;;;5.40;99.90;;;;;;4997319;28;20371;-68
2022/01/27 02:27:45;;;;;;;41.58;24.42;;;5.40;99.90;;;;;;4996743;28;20429;-70
2022/01/27 02:30:11;;;;;;;47.78;24.88;;;5.40;99.90;;;;;;4979995;28;20473;-68
2022/01/27 02:32:37;;;;;;;43.05;24.05;;;5.50;99.90;;;;;;4980638;28;20125;-70
2022/01/27 02:35:04;;;;;;;46.90;23.90;;;5.50;99.90;;;;;;4979675;28;20451;-71
2022/01/27 02:37:30;;;;;;;49.00;26.08;;;5.60;99.90;;;;;;4978201;28;20116;-70
2022/01/27 02:39:56;;;;;;;38.75;24.30;;;5.60;99.90;;;;;;4980070;28;20397;-69
2022/01/27 02:42:33;;;;;;;38.00;22.42;;;5.60;99.90;;;;;;4978110;28;20057;-70
2022/01/27 02:45:26;;;;;;;45.28;24.13;;;5.60;99.90;;;;;;4983461;28;20053;-69
2022/01/27 02:47:51;;;;;;;46.38;25.48;;;5.60;99.90;;;;;;4968695;28;20375;-71
2022/01/27 02:50:17;;;;;;;44.90;25.58;;;5.70;99.90;;;;;;4980121;28;20053;-68
2022/01/27 02:52:42;;;;;;;51.85;24.92;;;5.70;99.90;;;;;;4996522;28;20133;-70
2022/01/27 02:55:08;;;;;;;41.55;25.48;;;5.70;99.90;;;;;;4984433;28;20538;-70
2022/01/27 02:57:34;;;;;;;52.45;25.17;;;5.80;99.90;;;;;;4992421;28;20046;-70
2022/01/27 03:00:00;;;;;;;47.00;24.35;;;5.80;99.90;;;;;;4979958;28;20046;-70
2022/01/27 03:02:25;;;;;;;41.60;24.13;;;5.80;99.90;;;;;;4981864;28;20047;-69
2022/01/27 03:04:51;;;;;;;42.28;24.90;;;5.80;99.90;;;;;;4987610;28;20060;-70
2022/01/27 03:07:17;;;;;;;41.60;25.27;;;5.80;99.90;;;;;;4986736;28;20057;-71
2022/01/27 03:09:42;;;;;;;49.75;25.83;;;5.80;99.90;;;;;;4959704;28;20043;-71
2022/01/27 03:12:11;;;;;;;42.33;24.70;;;5.90;99.90;;;;;;4971988;28;20062;-69
2022/01/27 03:14:38;;;;;;;47.72;25.35;;;5.90;99.90;;;;;;4979875;28;20144;-69
2022/01/27 03:17:05;;;;;;;46.38;25.08;;;6.00;99.90;;;;;;4984460;28;20046;-69
2022/01/27 03:19:31;;;;;;;45.85;24.80;;;5.90;99.90;;;;;;4996169;28;20142;-69
2022/01/27 03:21:57;;;;;;;46.00;25.23;;;5.90;99.90;;;;;;4996284;28;20046;-70
2022/01/27 03:24:24;;;;;;;48.70;25.67;;;5.90;99.90;;;;;;4994679;28;20583;-70
2022/01/27 03:26:51;;;;;;;44.83;24.67;;;5.90;99.90;;;;;;4995958;28;20161;-72
2022/01/27 03:29:18;;;;;;;44.40;24.40;;;5.90;99.90;;;;;;4984334;28;20061;-69
2022/01/27 03:31:45;;;;;;;41.97;23.92;;;5.90;99.90;;;;;;4976898;28;20459;-70
2022/01/27 03:34:11;;;;;;;45.60;25.42;;;6.00;99.90;;;;;;4978531;28;20078;-72
2022/01/27 03:36:36;;;;;;;46.70;23.65;;;5.90;99.90;;;;;;4984236;28;20097;-69
2022/01/27 03:39:03;;;;;;;41.47;24.70;;;5.90;99.90;;;;;;4976593;28;20039;-70
2022/01/27 03:41:32;;;;;;;48.33;25.00;;;6.00;99.90;;;;;;4987196;28;20074;-68
2022/01/27 03:43:58;;;;;;;46.60;25.58;;;6.10;99.90;;;;;;4995849;28;20054;-69
2022/01/27 03:46:24;;;;;;;45.50;24.88;;;6.00;99.90;;;;;;4978866;28;20065;-70
2022/01/27 03:48:50;;;;;;;44.25;24.05;;;6.00;99.90;;;;;;4990797;28;20058;-71
2022/01/27 03:51:15;;;;;;;46.50;26.67;;;6.00;99.90;;;;;;4970199;28;20478;-70
2022/01/27 03:53:41;;;;;;;40.92;23.33;;;6.00;99.90;;;;;;4994863;28;20053;-69
2022/01/27 03:56:07;;;;;;;47.60;24.10;;;6.00;99.90;;;;;;4995735;28;20053;-71
2022/01/27 03:58:33;;;;;;;42.35;24.73;;;6.00;99.90;;;;;;4995408;28;20082;-70
2022/01/27 04:01:01;;;;;;;43.38;24.95;;;6.00;99.90;;;;;;4977792;28;20050;-70
2022/01/27 04:03:29;;;;;;;44.40;24.50;;;6.00;99.90;;;;;;4995541;28;20117;-72
2022/01/27 04:05:56;;;;;;;45.20;24.13;;;6.00;99.90;;;;;;4977766;28;20045;-70
2022/01/27 04:08:22;;;;;;;49.05;25.35;;;6.00;99.90;;;;;;4978577;28;20050;-71
2022/01/27 04:10:49;;;;;;;49.90;23.48;;;6.00;99.90;;;;;;4995810;28;20120;-70
2022/01/27 04:13:16;;;;;;;47.70;24.05;;;6.00;99.90;;;;;;4995533;28;20125;-69
2022/01/27 04:15:42;;;;;;;43.40;22.98;;;6.00;99.90;;;;;;4995640;28;20050;-69
2022/01/27 04:18:11;;;;;;;41.72;24.60;;;6.10;99.90;;;;;;4974929;28;20137;-69
2022/01/27 04:20:39;;;;;;;43.38;23.48;;;6.10;99.90;;;;;;4995250;28;20047;-70
2022/01/27 04:23:05;;;;;;;45.53;23.40;;;6.10;99.90;;;;;;4982956;28;20096;-71
2022/01/27 04:25:31;;;;;;;45.92;23.67;;;6.10;99.90;;;;;;4995127;28;20086;-69
2022/01/27 04:28:02;;;;;;;46.50;23.58;;;6.10;99.90;;;;;;4995263;28;20050;-70
2022/01/27 04:30:27;;;;;;;48.63;23.17;;;6.10;99.90;;;;;;4995559;28;20096;-70
2022/01/27 04:32:57;;;;;;;40.65;21.98;;;6.10;99.90;;;;;;4995302;28;20125;-70
2022/01/27 04:35:26;;;;;;;44.78;23.30;;;6.10;99.90;;;;;;4994925;28;20050;-72
2022/01/27 04:43:41;;;;;;;40.35;22.30;;;6.20;99.90;;;;;;4978092;28;20113;-70
2022/01/27 04:46:21;;;;;;;43.55;23.17;;;6.10;99.90;;;;;;4995666;28;20073;-69
2022/01/27 04:48:57;;;;;;;43.65;22.42;;;6.20;99.90;;;;;;4977881;28;20455;-70
2022/01/27 04:51:24;;;;;;;48.22;22.92;;;6.40;99.90;;;;;;4995556;28;20061;-71
2022/01/27 04:56:29;;;;;;;42.15;22.13;;;6.20;99.90;;;;;;4995313;28;20062;-69
2022/01/27 04:59:00;;;;;;;49.67;22.42;;;6.20;99.90;;;;;;4977961;28;20054;-69
2022/01/27 05:01:33;;;;;;;44.50;22.60;;;6.20;99.90;;;;;;4994454;28;20050;-69
2022/01/27 05:04:15;;;;;;;45.75;21.38;;;6.20;99.90;;;;;;4995096;28;20046;-72
2022/01/27 05:06:40;;;;;;;46.33;22.25;;;6.20;99.90;;;;;;4996269;28;20084;-70
2022/01/27 05:09:06;;;;;;;41.45;22.17;;;6.20;99.90;;;;;;4978110;28;20069;-68
2022/01/27 05:11:36;;;;;;;41.90;21.10;;;6.20;99.90;;;;;;4995509;28;20050;-70
2022/01/27 05:14:13;;;;;;;42.40;21.70;;;6.20;99.90;;;;;;4979060;28;20359;-69
2022/01/27 05:16:38;;;;;;;51.42;22.13;;;6.20;99.90;;;;;;4995419;28;20427;-70
2022/01/27 05:19:04;;;;;;;45.30;22.10;;;6.20;99.90;;;;;;4994802;28;20196;-71
2022/01/27 05:21:32;;;;;;;40.25;21.85;;;6.20;99.90;;;;;;4995322;28;20453;-68
2022/01/27 05:23:58;;;;;;;51.55;22.65;;;6.20;99.90;;;;;;4994475;28;20054;-69
2022/01/27 05:26:24;;;;;;;46.72;23.35;;;6.20;99.90;;;;;;4994911;28;20054;-69
2022/01/27 05:28:49;;;;;;;50.70;24.55;;;6.20;99.90;;;;;;4995065;28;20473;-69
2022/01/27 05:31:15;;;;;;;52.85;23.05;;;6.20;99.90;;;;;;4978281;28;20046;-69
2022/01/27 05:33:40;;;;;;;51.00;25.05;;;6.10;99.90;;;;;;4997705;28;20050;-69
2022/01/27 05:36:06;;;;;;;56.83;24.33;;;6.10;99.90;;;;;;4981181;28;20077;-70
2022/01/27 05:38:32;;;;;;;49.40;24.77;;;6.00;99.90;;;;;;4998376;28;20137;-70
2022/01/27 05:40:57;;;;;;;57.15;24.48;;;6.00;99.90;;;;;;4998443;28;20462;-70
2022/01/27 05:43:23;;;;;;;54.97;25.77;;;6.00;99.90;;;;;;4981689;28;20046;-70
2022/01/27 05:45:48;;;;;;;56.72;23.63;;;6.00;99.90;;;;;;4981833;28;20050;-70
2022/01/27 05:48:14;;;;;;;54.78;25.23;;;6.00;99.90;;;;;;4998464;28;20415;-70
2022/01/27 05:50:40;;;;;;;51.30;25.90;;;6.00;99.90;;;;;;4981141;28;20047;-71
2022/01/27 05:53:05;;;;;;;52.15;24.10;;;6.00;99.90;;;;;;4980400;28;20046;-70
2022/01/27 05:55:31;;;;;;;63.80;25.10;;;6.00;99.90;;;;;;5004491;28;20057;-70
2022/01/27 05:57:56;;;;;;;60.53;25.42;;;6.00;99.90;;;;;;5000683;28;20501;-70
2022/01/27 06:00:22;;;;;;;60.33;25.45;;;6.00;99.90;;;;;;5000220;28;20461;-72
2022/01/27 06:02:48;;;;;;;59.60;23.77;;;6.00;99.90;;;;;;5017889;28;20060;-70
2022/01/27 06:05:14;;;;;;;58.63;25.98;;;5.90;99.90;;;;;;5016861;28;20050;-70
2022/01/27 06:07:39;;;;;;;57.35;24.02;;;6.00;99.90;;;;;;5017731;28;20180;-69
2022/01/27 06:10:05;;;;;;;58.30;25.60;;;6.00;99.90;;;;;;5017345;28;20469;-71
2022/01/27 06:12:31;;;;;;;62.88;24.73;;;5.90;99.90;;;;;;5017378;28;20050;-70
2022/01/27 06:14:56;;;;;;;63.17;25.23;;;6.00;99.90;;;;;;5017394;28;20458;-70
2022/01/27 06:17:22;;;;;;;53.65;24.55;;;6.00;99.90;;;;;;5000416;28;20053;-70
2022/01/27 06:19:48;;;;;;;52.38;24.10;;;6.00;99.90;;;;;;5016464;28;20045;-70
2022/01/27 06:22:15;;;;;;;58.75;24.10;;;6.00;99.90;;;;;;5015910;28;20050;-70
2022/01/27 06:24:44;;;;;;;56.17;23.95;;;6.00;99.90;;;;;;4996521;28;20092;-69
2022/01/27 06:27:11;;;;;;;54.22;22.98;;;6.00;99.90;;;;;;4996102;28;20089;-70
2022/01/27 06:29:37;;;;;;;55.92;23.50;;;6.00;99.90;;;;;;4996868;28;20051;-70
2022/01/27 06:32:04;;;;;;;52.22;22.38;;;6.00;99.90;;;;;;4997194;28;20051;-69
2022/01/27 06:34:30;;;;;;;58.10;23.00;;;6.00;99.90;;;;;;4979802;28;20058;-68
2022/01/27 06:36:56;;;;;;;47.22;22.25;;;6.10;99.90;;;;;;4996274;28;20060;-67
2022/01/27 06:39:22;;;;;;;53.17;21.83;;;6.10;99.90;;;;;;4980627;28;20053;-67
2022/01/27 06:41:48;;;;;;;48.15;21.48;;;6.10;99.90;;;;;;4995737;28;20060;-68
2022/01/27 06:44:13;;;;;;;51.08;21.98;;;6.10;99.90;;;;;;4979872;28;20065;-68
2022/01/27 06:46:39;;;;;;;45.55;20.60;;;6.10;99.90;;;;;;4980151;28;20058;-68
2022/01/27 06:49:05;;;;;;;44.30;20.95;;;6.20;99.90;;;;;;4979709;28;20466;-68
2022/01/27 06:51:31;;;;;;;48.28;21.05;;;6.10;99.90;;;;;;4979557;28;20501;-68
2022/01/27 06:53:57;;;;;;;44.67;21.40;;;6.10;99.90;;;;;;4996377;28;20446;-67
2022/01/27 06:56:24;;;;;;;51.40;20.48;;;6.20;99.90;;;;;;4979949;28;20054;-67
2022/01/27 06:58:49;;;;;;;49.45;20.23;;;6.20;99.90;;;;;;4996401;28;20129;-69
2022/01/27 07:01:15;;;;;;;44.42;19.75;;;6.20;99.90;;;;;;4995615;28;20119;-68
2022/01/27 07:03:40;;;;;;;64.30;20.85;;;6.20;99.90;;;;;;4980738;28;20054;-67
2022/01/27 07:06:06;;;;;;;42.42;19.02;;;6.20;99.90;;;;;;4979413;28;20057;-69
2022/01/27 07:08:31;;;;;;;50.05;19.83;;;6.20;99.90;;;;;;4979181;28;20046;-67
2022/01/27 07:10:57;;;;;;;40.72;19.80;;;6.50;99.90;;;;;;4978849;28;20050;-67
2022/01/27 07:13:23;;;;;;;40.85;17.88;;;6.20;99.90;;;;;;4996982;28;20046;-67
2022/01/27 07:15:48;;;;;;;46.28;17.98;;;6.20;99.90;;;;;;4996243;28;20459;-69
2022/01/27 07:18:14;;;;;;;37.55;17.23;;;6.30;99.90;;;;;;4979245;28;20043;-67
2022/01/27 07:20:39;;;;;;;43.95;17.48;;;6.40;99.90;;;;;;4995909;28;20078;-69
2022/01/27 07:23:10;;;;;;;37.17;16.98;;;6.30;99.90;;;;;;4978644;28;20042;-68
2022/01/27 07:25:36;;;;;;;40.70;17.77;;;6.40;99.90;;;;;;4979014;28;20101;-69
2022/01/27 07:28:01;;;;;;;34.72;16.70;;;6.40;99.90;;;;;;4978856;28;20050;-68
2022/01/27 07:30:27;;;;;;;33.58;16.90;;;6.40;99.90;;;;;;4996104;28;20394;-70
2022/01/27 07:32:53;;;;;;;36.90;16.00;;;6.40;99.90;;;;;;4996321;28;20046;-68
2022/01/27 07:35:18;;;;;;;36.00;15.82;;;6.70;99.90;;;;;;4997863;28;20116;-70
2022/01/27 07:37:45;;;;;;;30.17;15.63;;;6.50;99.90;;;;;;4995593;28;20050;-68
2022/01/27 07:40:12;;;;;;;35.30;14.80;;;6.50;99.90;;;;;;4978053;28;20050;-69
2022/01/27 07:42:38;;;;;;;29.05;14.68;;;6.50;99.90;;;;;;4977891;28;20050;-68
2022/01/27 07:45:05;;;;;;;37.38;14.90;;;6.50;99.90;;;;;;4978473;28;20058;-67
2022/01/27 07:47:30;;;;;;;31.50;16.15;;;6.60;99.90;;;;;;4995729;28;20501;-68
2022/01/27 07:49:56;;;;;;;33.05;15.23;;;6.60;99.90;;;;;;4979723;28;20050;-69
2022/01/27 07:52:21;;;;;;;35.80;15.65;;;6.60;99.90;;;;;;4978329;28;20046;-68
2022/01/27 07:54:47;;;;;;;32.75;15.88;;;6.60;99.90;;;;;;4978568;28;20101;-69
2022/01/27 07:57:13;;;;;;;36.75;15.35;;;6.70;99.90;;;;;;4977558;28;20042;-71
2022/01/27 07:59:41;;;;;;;31.58;15.27;;;6.60;99.90;;;;;;4978372;28;20349;-70
2022/01/27 08:02:07;;;;;;;36.55;15.93;;;6.70;99.90;;;;;;4994225;28;20064;-69
2022/01/27 08:04:33;;;;;;;35.92;15.60;;;6.70;99.90;;;;;;4994997;28;20050;-67
2022/01/27 08:07:00;;;;;;;32.67;16.02;;;6.80;99.90;;;;;;4977851;28;20042;-67
2022/01/27 08:09:26;;;;;;;39.15;16.80;;;6.80;99.90;;;;;;4977823;28;20042;-68
2022/01/27 08:11:51;;;;;;;42.53;17.30;;;6.80;99.90;;;;;;4994905;28;20046;-68
2022/01/27 08:14:17;;;;;;;41.17;16.23;;;6.90;99.90;;;;;;4995481;28;20268;-68
2022/01/27 08:16:42;;;;;;;38.80;17.42;;;6.90;99.90;;;;;;4978000;28;20050;-69
2022/01/27 08:19:08;;;;;;;44.40;17.27;;;6.90;99.90;;;;;;4995407;28;20042;-70
2022/01/27 08:21:33;;;;;;;42.10;16.23;;;7.00;99.90;;;;;;4994832;28;20385;-68
2022/01/27 08:23:59;;;;;;;41.25;16.73;;;7.00;99.90;;;;;;4995510;28;20061;-67
2022/01/27 08:26:36;;;;;;;41.90;15.85;;;7.00;99.90;;;;;;4978100;28;20050;-66
2022/01/27 08:29:20;;;;;;;41.85;16.20;;;7.10;99.90;;;;;;4995158;28;20058;-69
2022/01/27 08:34:29;;;;;;;44.22;16.00;;;7.20;99.90;;;;;;4995072;28;20089;-68
2022/01/27 08:36:59;;;;;;;38.95;14.75;;;7.40;99.90;;;;;;4977241;28;20058;-69
2022/01/27 08:39:25;;;;;;;37.38;14.35;;;7.20;99.90;;;;;;4977880;28;20054;-68
2022/01/27 08:41:51;;;;;;;40.38;15.68;;;7.30;99.90;;;;;;4977263;28;20348;-69
2022/01/27 08:44:17;;;;;;;40.97;15.57;;;7.30;99.90;;;;;;4978424;28;20054;-68
2022/01/27 08:46:42;;;;;;;36.85;15.02;;;7.50;99.90;;;;;;4977505;28;20457;-68
2022/01/27 08:49:08;;;;;;;34.55;13.57;;;7.40;99.90;;;;;;4977899;28;20213;-67
2022/01/27 08:51:34;;;;;;;36.67;13.23;;;7.40;99.90;;;;;;4994907;28;20058;-69
2022/01/27 08:54:00;;;;;;;43.50;12.88;;;7.50;99.90;;;;;;4995066;28;20133;-67
2022/01/27 08:56:26;;;;;;;30.45;11.15;;;7.50;99.90;;;;;;4977244;28;20077;-68
2022/01/27 08:58:53;;;;;;;29.70;11.95;;;7.50;99.90;;;;;;4977005;28;20190;-67
2022/01/27 09:01:20;;;;;;;35.90;10.85;;;7.60;99.90;;;;;;4994427;28;20042;-68
2022/01/27 09:03:45;;;;;;;31.17;11.10;;;7.60;99.90;;;;;;5002101;28;20438;-67
2022/01/27 09:06:11;;;;;;;25.85;10.60;;;7.60;99.90;;;;;;4997141;28;20054;-68
2022/01/27 09:08:37;;;;;;;33.95;11.07;;;7.70;99.90;;;;;;4999881;28;20427;-68
2022/01/27 09:11:02;;;;;;;26.35;10.43;;;7.70;99.90;;;;;;5001305;28;20060;-69
2022/01/27 09:13:28;;;;;;;40.10;10.23;;;7.70;99.90;;;;;;5000782;28;20050;-68
2022/01/27 09:15:58;;;;;;;27.23;9.60;;;7.70;99.90;;;;;;5018026;28;20038;-66
2022/01/27 09:18:23;;;;;;;28.88;10.50;;;7.70;99.90;;;;;;5001050;28;20129;-68
2022/01/27 09:20:49;;;;;;;29.58;9.32;;;7.70;99.90;;;;;;4994364;28;20441;-68
2022/01/27 09:23:15;;;;;;;26.35;8.98;;;7.80;99.90;;;;;;4981785;28;20047;-67
2022/01/27 09:25:45;;;;;;;26.50;9.73;;;7.80;99.90;;;;;;4981247;28;20173;-68
2022/01/27 09:28:12;;;;;;;30.65;9.73;;;7.80;99.90;;;;;;4998160;28;20465;-68
2022/01/27 09:30:38;;;;;;;26.42;9.43;;;7.80;99.90;;;;;;4981045;28;20475;-67
2022/01/27 09:33:04;;;;;;;25.70;9.02;;;7.80;99.90;;;;;;4981189;28;20044;-67
2022/01/27 09:35:31;;;;;;;31.55;9.55;;;7.80;99.90;;;;;;4980908;28;20054;-67
2022/01/27 09:37:58;;;;;;;34.58;8.57;;;7.80;99.90;;;;;;4998632;28;20349;-67
2022/01/27 09:40:24;;;;;;;28.02;9.32;;;7.80;99.90;;;;;;4980364;28;20051;-70
2022/01/27 09:42:53;;;;;;;29.98;8.57;;;7.80;99.90;;;;;;4998223;28;20046;-67
2022/01/27 09:45:19;;;;;;;27.83;7.78;;;7.90;99.90;;;;;;4981762;28;20116;-67
2022/01/27 09:47:54;;;;;;;35.53;8.73;;;7.90;99.90;;;;;;4998202;28;20043;-67
2022/01/27 09:53:13;;;;;;;29.73;7.35;;;8.00;99.90;;;;;;4978944;28;20193;-67
2022/01/27 09:55:38;;;;;;;27.90;8.10;;;8.00;99.90;;;;;;4980818;28;20064;-67
2022/01/27 09:58:07;;;;;;;31.45;8.00;;;8.00;99.90;;;;;;4979291;28;20050;-68
2022/01/27 10:00:33;;;;;;;20.27;7.30;;;8.10;99.90;;;;;;4997091;28;20125;-69
2022/01/27 10:03:08;;;;;;;28.88;7.65;;;8.10;99.90;;;;;;4980169;28;20403;-69
2022/01/27 10:05:35;;;;;;;23.33;6.78;;;8.20;99.90;;;;;;4997636;28;20054;-67
2022/01/27 10:08:17;;;;;;;20.92;5.72;;;8.30;99.90;;;;;;4997085;28;20423;-67
2022/01/27 10:10:46;;;;;;;24.98;7.22;;;8.40;99.90;;;;;;4992717;28;20054;-68
2022/01/27 10:13:31;;;;;;;29.00;6.10;;;8.40;99.90;;;;;;4999716;28;20418;-69
2022/01/27 10:15:56;;;;;;;23.20;7.00;;;8.50;99.90;;;;;;4999687;28;20053;-69
2022/01/27 10:18:27;;;;;;;27.33;7.20;;;8.50;99.90;;;;;;4990008;28;20039;-70
2022/01/27 10:21:02;;;;;;;24.67;5.97;;;8.60;99.90;;;;;;4979241;28;20073;-69
2022/01/27 10:23:33;;;;;;;23.42;6.40;;;8.60;99.90;;;;;;4997168;28;20050;-67
2022/01/27 10:26:12;;;;;;;24.20;5.95;;;8.60;99.90;;;;;;4997149;28;20054;-67
2022/01/27 10:28:45;;;;;;;22.58;6.35;;;8.60;99.90;;;;;;4997016;28;20424;-68
2022/01/27 10:31:20;;;;;;;26.05;6.75;;;8.60;99.90;;;;;;4980104;28;20469;-69
2022/01/27 10:33:52;;;;;;;19.50;6.07;;;8.60;99.90;;;;;;4997610;28;20065;-68
2022/01/27 10:36:26;;;;;;;19.00;6.13;;;8.60;99.90;;;;;;4979698;28;20054;-68
2022/01/27 10:38:53;;;;;;;;;;;8.60;99.90;;;;;;4980278;28;20691;-68
2022/01/27 10:41:20;;;;;;;26.63;5.53;;;8.60;99.90;;;;;;4995363;28;20012;-69
2022/01/27 10:43:46;;;;;;;21.60;6.55;;;8.60;99.90;;;;;;4980507;28;20108;-68
2022/01/27 10:46:21;;;;;;;26.30;6.10;;;8.60;99.90;;;;;;4980042;28;20050;-71
2022/01/27 10:49:03;;;;;;;21.73;6.50;;;8.60;99.90;;;;;;4996702;28;20571;-69
2022/01/27 10:51:38;;;;;;;29.10;6.43;;;8.60;99.90;;;;;;4996873;28;20042;-69
2022/01/27 10:54:05;;;;;;;20.67;5.47;;;8.60;99.90;;;;;;4997834;28;20113;-70
2022/01/27 10:56:36;;;;;;;29.73;7.18;;;8.60;99.90;;;;;;4996454;28;20058;-70
2022/01/27 10:59:11;;;;;;;20.77;5.07;;;8.60;99.90;;;;;;4991537;28;20487;-66
2022/01/27 11:01:39;;;;;;;21.90;5.80;;;8.60;99.90;;;;;;4978200;28;20042;-69
2022/01/27 11:04:06;;;;;;;24.27;6.57;;;8.70;99.90;;;;;;4978535;28;20124;-68
2022/01/27 11:06:34;;;;;;;24.52;5.18;;;8.70;99.90;;;;;;4979491;28;20058;-68
2022/01/27 11:09:07;;;;;;;18.85;5.22;;;8.80;99.90;;;;;;4996636;28;20050;-70
2022/01/27 11:11:33;;;;;;;23.92;5.65;;;8.90;99.90;;;;;;4979540;28;20426;-67
2022/01/27 11:13:59;;;;;;;27.88;6.47;;;8.80;99.90;;;;;;4994528;28;20050;-67
2022/01/27 11:16:34;;;;;;;20.52;5.53;;;8.90;99.90;;;;;;4973186;28;20053;-69
2022/01/27 11:19:14;;;;;;;25.30;6.75;;;8.90;99.90;;;;;;4976754;28;20047;-68
2022/01/27 11:21:43;;;;;;;21.05;4.57;;;8.90;99.90;;;;;;4989122;28;20447;-68
2022/01/27 11:24:23;;;;;;;21.48;5.45;;;8.90;99.90;;;;;;4979011;28;20086;-69
2022/01/27 11:26:51;;;;;;;23.98;5.32;;;8.90;99.90;;;;;;4995656;28;20124;-68
2022/01/27 11:29:18;;;;;;;17.75;4.97;;;8.90;99.90;;;;;;4993602;28;20054;-70
2022/01/27 11:32:10;;;;;;;22.20;4.88;;;9.00;99.90;;;;;;4997446;28;20061;-67
2022/01/27 11:34:52;;;;;;;30.92;5.47;;;9.00;99.90;;;;;;4978454;28;20057;-66
2022/01/27 11:37:36;;;;;;;22.10;5.32;;;9.00;99.90;;;;;;4996234;28;20046;-68
2022/01/27 11:40:07;;;;;;;26.55;4.70;;;9.10;99.90;;;;;;4978560;28;20047;-69
2022/01/27 11:43:04;;;;;;;23.05;4.38;;;9.10;99.90;;;;;;4975170;28;20093;-69
2022/01/27 11:45:36;;;;;;;29.25;5.18;;;9.10;99.90;;;;;;4966935;28;20065;-68
2022/01/27 11:48:10;;;;;;;23.60;5.10;;;9.10;99.90;;;;;;4995313;28;20049;-68
2022/01/27 11:50:57;;;;;;;24.30;5.10;;;9.20;99.90;;;;;;4995372;28;20116;-69
2022/01/27 11:53:34;;;;;;;25.67;4.78;;;9.20;99.90;;;;;;4995810;28;20042;-67
2022/01/27 11:56:29;;;;;;;22.27;4.82;;;9.20;99.90;;;;;;4995623;28;20050;-69
2022/01/27 11:59:02;;;;;;;22.95;4.30;;;9.20;99.90;;;;;;4978647;28;20181;-67
2022/01/27 12:01:34;;;;;;;27.48;5.72;;;9.30;99.90;;;;;;4979186;28;20115;-68
2022/01/27 12:04:04;;;;;;;22.00;4.88;;;9.20;99.90;;;;;;4995158;28;20046;-68
2022/01/27 12:06:42;;;;;;;21.30;4.53;;;9.30;99.90;;;;;;4978171;28;20119;-68
2022/01/27 12:09:19;;;;;;;29.77;4.78;;;9.30;99.90;;;;;;4994356;28;20050;-67
2022/01/27 12:11:52;;;;;;;24.77;3.85;;;9.30;99.90;;;;;;4995425;28;20042;-69
2022/01/27 12:14:22;;;;;;;18.10;3.83;;;9.30;99.90;;;;;;4995380;28;20367;-69
2022/01/27 12:17:16;;;;;;;23.77;4.10;;;9.30;99.90;;;;;;4994107;28;20050;-67
2022/01/27 12:19:57;;;;;;;22.65;4.10;;;9.30;99.90;;;;;;4992417;28;20193;-68
2022/01/27 12:22:45;;;;;;;27.92;4.53;;;9.30;99.90;;;;;;4977334;28;20057;-69
2022/01/27 12:25:15;;;;;;;25.58;4.63;;;9.30;99.90;;;;;;4968411;28;20062;-68
2022/01/27 12:27:48;;;;;;;27.50;4.65;;;9.30;99.90;;;;;;4994720;28;20053;-69
2022/01/27 12:30:14;;;;;;;19.40;4.03;;;9.30;99.90;;;;;;4977781;28;20092;-68
2022/01/27 12:32:40;;;;;;;21.88;4.20;;;9.30;99.90;;;;;;4994435;28;20074;-68
2022/01/27 12:35:09;;;;;;;24.45;4.53;;;9.30;99.90;;;;;;4961859;28;20069;-67
2022/01/27 12:37:39;;;;;;;23.92;3.97;;;9.30;99.90;;;;;;4995145;28;20054;-67
2022/01/27 12:40:15;;;;;;;25.83;4.57;;;9.30;99.90;;;;;;4977977;28;20046;-69
2022/01/27 12:42:59;;;;;;;35.00;4.50;;;9.30;99.90;;;;;;4996422;28;20050;-68
2022/01/27 12:45:28;;;;;;;22.33;4.13;;;9.30;99.90;;;;;;4999616;28;20047;-68
2022/01/27 12:47:59;;;;;;;23.38;4.35;;;9.30;99.90;;;;;;4994379;28;20053;-68
2022/01/27 12:50:25;;;;;;;24.83;5.05;;;9.50;99.90;;;;;;4981642;28;20046;-68
2022/01/27 12:52:58;;;;;;;27.20;4.10;;;9.30;99.90;;;;;;4998087;28;20454;-68
2022/01/27 12:55:31;;;;;;;30.42;4.47;;;9.30;99.90;;;;;;4998938;28;20046;-69
2022/01/27 12:57:59;;;;;;;19.60;3.30;;;9.40;99.90;;;;;;4982295;28;20455;-70
2022/01/27 13:00:28;;;;;;;15.32;3.28;;;9.40;99.90;;;;;;4998636;28;20058;-69
2022/01/27 13:03:01;;;;;;;25.80;4.38;;;9.40;99.90;;;;;;4997206;28;20050;-68
2022/01/27 13:05:39;;;;;;;21.40;4.55;;;9.40;99.90;;;;;;4998856;28;20046;-69
2022/01/27 13:08:32;;;;;;;23.83;4.20;;;9.40;99.90;;;;;;4998826;28;20394;-69
2022/01/27 13:11:04;;;;;;;24.30;4.20;;;9.40;99.90;;;;;;4998795;28;20379;-68
2022/01/27 13:13:34;;;;;;;16.67;3.78;;;9.50;99.90;;;;;;4999044;28;20099;-68
2022/01/27 13:16:07;;;;;;;18.80;3.80;;;9.50;99.90;;;;;;4999421;28;20050;-69
2022/01/27 13:18:48;;;;;;;23.20;4.15;;;9.50;99.90;;;;;;4981088;28;20131;-68
2022/01/27 13:21:27;;;;;;;26.17;3.72;;;9.60;99.90;;;;;;4997701;28;20057;-66
2022/01/27 13:24:08;;;;;;;21.63;4.10;;;9.50;99.90;;;;;;4998731;28;20121;-68
2022/01/27 13:26:34;;;;;;;23.17;4.22;;;9.60;99.90;;;;;;4981968;28;20348;-68
2022/01/27 13:29:00;;;;;;;20.13;3.78;;;9.60;99.90;;;;;;4998708;28;20447;-67
2022/01/27 13:31:27;;;;;;;28.38;5.20;;;9.50;99.90;;;;;;4981082;28;20043;-67
2022/01/27 13:33:53;;;;;;;20.10;3.90;;;9.50;99.90;;;;;;4998454;28;20073;-67
2022/01/27 13:36:26;;;;;;;24.17;4.25;;;9.50;99.90;;;;;;4998672;28;20463;-68